Time;durP1;ratioP1;P1;durP2;ratioP2;P2;SDS_P1;SDS_P2;PMS_P1;PMS_P2;Temp;Humidity;BMP_temperature;BMP_pressure;BME280_temperature;BME280_humidity;BME280_pressure;Samples;Min_cycle;Max_cycle;Signal;HPM_P1;HPM_P2
2023/06/30 00:01:33;;;;;;;11.88;7.78;;;17.50;96.60;;;;;;5024852;28;20063;-68
2023/06/30 00:03:59;;;;;;;8.35;5.53;;;17.40;95.90;;;;;;5022753;28;20033;-67
2023/06/30 00:06:24;;;;;;;8.00;4.50;;;17.20;95.60;;;;;;5026784;28;20033;-68
2023/06/30 00:08:50;;;;;;;7.68;3.50;;;17.20;95.20;;;;;;5022619;28;20457;-68
2023/06/30 00:11:17;;;;;;;6.38;2.70;;;17.20;95.20;;;;;;5026913;28;20413;-71
2023/06/30 00:13:43;;;;;;;6.35;2.78;;;17.10;94.40;;;;;;5028080;28;20048;-67
2023/06/30 00:16:09;;;;;;;4.03;2.13;;;17.00;94.20;;;;;;5030570;28;20053;-70
2023/06/30 00:18:34;;;;;;;6.50;2.35;;;17.00;93.90;;;;;;5026346;28;20131;-69
2023/06/30 00:21:00;;;;;;;5.05;2.22;;;17.00;93.70;;;;;;5023429;28;20033;-67
2023/06/30 00:23:28;;;;;;;5.57;2.30;;;17.00;94.00;;;;;;5025800;28;20017;-68
2023/06/30 00:25:54;;;;;;;4.07;2.00;;;17.00;93.80;;;;;;5025562;28;20082;-68
2023/06/30 00:28:20;;;;;;;3.83;2.08;;;17.00;94.00;;;;;;5013684;28;20469;-68
2023/06/30 00:30:46;;;;;;;5.45;2.15;;;16.90;93.90;;;;;;5025209;28;20068;-70
2023/06/30 00:33:11;;;;;;;6.40;2.10;;;17.00;94.10;;;;;;5027238;28;20055;-67
2023/06/30 00:35:37;;;;;;;2.92;1.83;;;16.90;93.90;;;;;;5007118;28;20029;-68
2023/06/30 00:38:02;;;;;;;4.78;1.70;;;16.90;93.80;;;;;;5024030;28;20091;-68
2023/06/30 00:40:28;;;;;;;5.03;2.00;;;16.90;93.60;;;;;;5010453;28;20761;-67
2023/06/30 00:42:54;;;;;;;5.03;2.00;;;16.90;93.80;;;;;;5027520;28;20014;-68
2023/06/30 00:45:19;;;;;;;4.13;1.90;;;16.90;93.50;;;;;;5023020;28;20096;-68
2023/06/30 00:47:45;;;;;;;4.88;1.65;;;16.80;93.30;;;;;;5027011;28;20425;-69
2023/06/30 00:50:12;;;;;;;2.80;1.42;;;16.80;93.20;;;;;;5022942;28;20032;-68
2023/06/30 00:52:38;;;;;;;4.60;1.92;;;16.70;93.50;;;;;;5024970;28;20022;-68
2023/06/30 00:55:05;;;;;;;3.15;1.65;;;16.70;93.50;;;;;;5028008;28;20033;-67
2023/06/30 00:57:30;;;;;;;3.67;1.60;;;16.70;93.70;;;;;;5029611;28;20113;-67
2023/06/30 00:59:56;;;;;;;6.18;2.20;;;16.70;93.80;;;;;;5029103;28;20195;-69
2023/06/30 01:02:25;;;;;;;6.72;2.20;;;16.70;94.00;;;;;;5030947;28;20438;-69
2023/06/30 01:05:08;;;;;;;7.97;2.50;;;16.70;94.00;;;;;;5024655;28;20313;-68
2023/06/30 01:07:36;;;;;;;5.40;2.08;;;16.80;94.00;;;;;;5005613;28;20041;-69
2023/06/30 01:10:08;;;;;;;4.68;2.25;;;16.80;94.10;;;;;;5006894;28;20338;-68
2023/06/30 01:12:34;;;;;;;5.95;2.10;;;16.70;94.10;;;;;;5030551;28;20156;-67
2023/06/30 01:15:01;;;;;;;5.25;2.40;;;16.70;94.40;;;;;;5025258;28;20033;-68
2023/06/30 01:17:27;;;;;;;4.95;2.13;;;16.80;94.50;;;;;;5021340;28;20025;-67
2023/06/30 01:19:55;;;;;;;6.40;2.22;;;16.70;94.60;;;;;;5022086;28;20330;-67
2023/06/30 01:22:33;;;;;;;7.18;2.20;;;16.70;94.60;;;;;;5020328;28;20422;-67
2023/06/30 01:25:03;;;;;;;8.18;2.40;;;16.70;94.50;;;;;;5029212;28;20033;-67
2023/06/30 01:27:29;;;;;;;11.20;2.30;;;16.60;94.50;;;;;;5023510;28;20133;-68
2023/06/30 01:29:55;;;;;;;8.48;2.13;;;16.50;94.50;;;;;;5010751;28;20045;-68
2023/06/30 01:32:21;;;;;;;4.47;2.15;;;16.50;94.50;;;;;;5019529;28;20277;-68
2023/06/30 01:34:47;;;;;;;5.03;2.22;;;16.60;94.50;;;;;;5021438;28;20025;-69
2023/06/30 01:37:14;;;;;;;5.32;2.20;;;16.60;94.40;;;;;;5010642;28;20132;-67
2023/06/30 01:39:40;;;;;;;8.15;2.05;;;16.60;94.30;;;;;;5017142;28;20040;-68
2023/06/30 01:42:06;;;;;;;10.45;2.60;;;16.60;94.30;;;;;;5027308;28;20068;-67
2023/06/30 01:44:34;;;;;;;4.82;2.38;;;16.60;94.60;;;;;;5024520;28;20317;-70
2023/06/30 01:47:01;;;;;;;8.50;2.55;;;16.60;94.70;;;;;;5019711;28;20036;-68
2023/06/30 01:49:28;;;;;;;6.55;2.42;;;16.50;95.00;;;;;;5026196;28;20021;-68
2023/06/30 01:51:53;;;;;;;7.03;2.50;;;16.50;95.10;;;;;;5023843;28;20030;-67
2023/06/30 01:54:19;;;;;;;6.07;2.58;;;16.50;95.40;;;;;;5025997;28;20025;-68
2023/06/30 01:56:49;;;;;;;6.10;2.60;;;16.50;95.40;;;;;;5012017;28;20022;-68
2023/06/30 01:59:14;;;;;;;9.27;2.67;;;16.50;95.50;;;;;;5024287;28;20401;-67
2023/06/30 02:01:40;;;;;;;6.40;2.70;;;16.50;95.50;;;;;;5029884;28;20021;-67
2023/06/30 02:04:05;;;;;;;7.70;3.00;;;16.50;95.50;;;;;;5035781;28;20034;-68
2023/06/30 02:06:31;;;;;;;7.57;2.80;;;16.50;95.70;;;;;;5025967;28;20025;-68
2023/06/30 02:08:56;;;;;;;5.88;2.95;;;16.50;95.60;;;;;;5008852;28;20029;-68
2023/06/30 02:11:22;;;;;;;6.93;2.70;;;16.50;95.70;;;;;;5024300;28;20175;-67
2023/06/30 02:13:47;;;;;;;7.50;2.90;;;16.50;95.90;;;;;;5006758;28;20033;-68
2023/06/30 02:16:12;;;;;;;7.95;3.22;;;16.50;95.90;;;;;;5022216;28;20060;-70
2023/06/30 02:18:39;;;;;;;6.88;3.17;;;16.40;96.10;;;;;;5028286;28;20029;-69
2023/06/30 02:21:05;;;;;;;6.25;3.22;;;16.40;96.10;;;;;;5022559;28;20026;-68
2023/06/30 02:23:30;;;;;;;8.80;3.28;;;16.50;96.00;;;;;;5023603;28;20033;-67
2023/06/30 02:25:56;;;;;;;7.40;3.28;;;16.50;96.20;;;;;;5025432;28;20339;-68
2023/06/30 02:28:22;;;;;;;11.68;3.90;;;16.40;96.10;;;;;;5026397;28;20025;-68
2023/06/30 02:30:47;;;;;;;6.53;3.47;;;16.40;96.10;;;;;;5018430;28;20486;-68
2023/06/30 02:33:13;;;;;;;10.40;4.30;;;16.40;96.20;;;;;;5023402;28;20030;-67
2023/06/30 02:35:38;;;;;;;7.30;3.72;;;16.40;96.20;;;;;;5023143;28;20060;-68
2023/06/30 02:38:05;;;;;;;8.88;4.10;;;16.40;96.10;;;;;;5018104;28;20094;-67
2023/06/30 02:40:31;;;;;;;10.43;4.18;;;16.50;96.10;;;;;;5023909;28;20497;-67
2023/06/30 02:42:56;;;;;;;11.95;4.20;;;16.40;96.10;;;;;;5020663;28;20030;-69
2023/06/30 02:45:22;;;;;;;14.05;4.70;;;16.40;96.10;;;;;;5024188;28;20033;-69
2023/06/30 02:47:47;;;;;;;11.80;4.45;;;16.40;96.00;;;;;;5019493;28;20029;-67
2023/06/30 02:50:13;;;;;;;11.57;4.45;;;16.30;96.20;;;;;;5024212;28;20159;-67
2023/06/30 02:52:38;;;;;;;9.45;4.95;;;16.40;96.30;;;;;;5026710;28;20080;-67
2023/06/30 02:55:04;;;;;;;9.95;5.68;;;16.40;96.20;;;;;;5008897;28;20416;-68
2023/06/30 02:57:30;;;;;;;11.45;6.15;;;16.40;96.20;;;;;;5026726;28;20029;-67
2023/06/30 02:59:56;;;;;;;12.85;6.18;;;16.40;96.10;;;;;;5024823;28;20057;-67
2023/06/30 03:02:22;;;;;;;13.30;6.30;;;16.40;96.30;;;;;;5031907;28;20429;-69
2023/06/30 03:04:47;;;;;;;13.52;6.80;;;16.40;96.20;;;;;;5025928;28;20021;-70
2023/06/30 03:07:13;;;;;;;12.50;6.45;;;16.30;96.10;;;;;;5016446;28;20030;-66
2023/06/30 03:09:38;;;;;;;14.48;7.05;;;16.40;96.00;;;;;;5026741;28;20021;-66
2023/06/30 03:12:04;;;;;;;13.65;7.03;;;16.40;95.90;;;;;;5025769;28;20049;-66
2023/06/30 03:14:30;;;;;;;12.95;6.57;;;16.40;95.90;;;;;;5027976;28;20363;-66
2023/06/30 03:16:55;;;;;;;8.77;5.50;;;16.40;95.70;;;;;;5026209;28;20109;-66
2023/06/30 03:19:20;;;;;;;8.07;6.07;;;16.40;95.90;;;;;;5028404;28;20449;-66
2023/06/30 03:21:46;;;;;;;9.93;5.93;;;16.30;95.80;;;;;;5021776;28;20034;-68
2023/06/30 03:24:12;;;;;;;10.75;6.00;;;16.40;95.90;;;;;;5026545;28;20339;-66
2023/06/30 03:26:38;;;;;;;14.68;6.03;;;16.30;95.60;;;;;;5015860;28;20056;-66
2023/06/30 03:29:03;;;;;;;14.95;6.28;;;16.30;95.60;;;;;;5030921;28;20045;-68
2023/06/30 03:31:29;;;;;;;10.52;5.47;;;16.40;95.60;;;;;;5021393;28;20446;-66
2023/06/30 03:33:54;;;;;;;12.27;5.40;;;16.30;95.60;;;;;;5019489;28;20027;-70
2023/06/30 03:36:20;;;;;;;14.00;5.55;;;16.30;95.40;;;;;;5003641;28;20021;-67
2023/06/30 03:38:45;;;;;;;8.55;5.60;;;16.30;95.60;;;;;;5019526;28;20377;-66
2023/06/30 03:41:11;;;;;;;14.85;5.63;;;16.30;95.50;;;;;;5020204;28;20434;-67
2023/06/30 03:43:36;;;;;;;8.93;5.63;;;16.30;95.50;;;;;;5021663;28;20029;-67
2023/06/30 03:46:01;;;;;;;12.68;5.88;;;16.30;95.40;;;;;;5000047;28;20231;-67
2023/06/30 03:48:27;;;;;;;14.82;5.90;;;16.30;95.50;;;;;;5024210;28;20046;-67
2023/06/30 03:50:53;;;;;;;10.90;5.38;;;16.30;95.60;;;;;;5027586;28;20466;-67
2023/06/30 03:53:21;;;;;;;10.70;6.03;;;16.30;95.50;;;;;;5027185;28;20433;-66
2023/06/30 03:55:46;;;;;;;12.10;5.72;;;16.30;95.40;;;;;;5035275;28;20128;-66
2023/06/30 03:58:12;;;;;;;12.07;5.57;;;16.30;95.40;;;;;;5025694;28;20386;-66
2023/06/30 04:00:37;;;;;;;15.40;5.72;;;16.40;95.30;;;;;;5021072;28;20030;-67
2023/06/30 04:03:03;;;;;;;8.95;5.20;;;16.40;95.30;;;;;;4997740;28;20029;-68
2023/06/30 04:05:28;;;;;;;9.77;5.32;;;16.40;95.30;;;;;;5021897;28;20046;-66
2023/06/30 04:07:54;;;;;;;9.85;5.13;;;16.40;95.20;;;;;;5029213;28;20140;-66
2023/06/30 04:10:19;;;;;;;13.60;5.32;;;16.40;95.10;;;;;;5023924;28;20056;-66
2023/06/30 04:12:45;;;;;;;8.25;4.78;;;16.40;95.30;;;;;;5033781;28;20056;-71
2023/06/30 04:15:10;;;;;;;9.98;4.85;;;16.50;95.00;;;;;;5006544;28;20105;-67
2023/06/30 04:17:39;;;;;;;11.23;4.75;;;16.50;94.90;;;;;;5017362;28;20034;-67
2023/06/30 04:20:09;;;;;;;10.65;5.43;;;16.60;94.60;;;;;;5024964;28;20040;-66
2023/06/30 04:22:36;;;;;;;16.40;5.57;;;16.50;94.50;;;;;;5020919;28;20026;-66
2023/06/30 04:25:03;;;;;;;13.77;5.05;;;16.60;94.60;;;;;;5016644;28;20034;-67
2023/06/30 04:27:28;;;;;;;10.55;4.80;;;16.70;94.30;;;;;;5025823;28;20029;-65
2023/06/30 04:29:54;;;;;;;9.93;4.20;;;16.60;94.30;;;;;;5026251;28;20041;-66
2023/06/30 04:32:19;;;;;;;10.18;4.82;;;16.60;94.70;;;;;;5024635;28;20029;-65
2023/06/30 04:34:45;;;;;;;14.73;4.88;;;16.60;95.10;;;;;;5023388;28;20528;-65
2023/06/30 04:37:10;;;;;;;10.05;5.38;;;16.60;95.50;;;;;;5017333;28;20092;-67
2023/06/30 04:39:36;;;;;;;8.52;5.20;;;16.40;95.50;;;;;;5022987;28;20040;-66
2023/06/30 04:42:01;;;;;;;11.35;6.20;;;16.40;95.90;;;;;;5023514;28;20025;-65
2023/06/30 04:44:27;;;;;;;15.00;5.78;;;16.30;96.10;;;;;;5029309;28;20082;-65
2023/06/30 04:46:52;;;;;;;12.15;5.93;;;16.20;96.30;;;;;;5022489;28;20053;-64
2023/06/30 04:49:18;;;;;;;17.88;6.47;;;16.20;96.60;;;;;;5025225;28;20128;-65
2023/06/30 04:51:43;;;;;;;10.00;6.95;;;16.20;96.80;;;;;;5026133;28;20041;-65
2023/06/30 04:54:09;;;;;;;16.10;8.05;;;16.10;96.80;;;;;;5020438;28;20087;-64
2023/06/30 04:56:34;;;;;;;14.70;7.93;;;16.10;96.90;;;;;;5020073;28;20025;-64
2023/06/30 04:59:00;;;;;;;14.20;7.70;;;16.10;96.90;;;;;;5022694;28;20108;-64
2023/06/30 05:01:25;;;;;;;16.55;7.55;;;16.00;97.00;;;;;;5020547;28;20491;-66
2023/06/30 05:03:51;;;;;;;15.75;8.32;;;16.00;97.10;;;;;;5026438;28;20052;-68
2023/06/30 05:06:16;;;;;;;14.75;8.63;;;16.10;97.40;;;;;;5016992;28;20318;-67
2023/06/30 05:08:41;;;;;;;13.45;8.80;;;16.00;97.40;;;;;;5025684;28;20041;-65
2023/06/30 05:11:07;;;;;;;17.23;8.90;;;16.00;97.70;;;;;;5026077;28;20143;-64
2023/06/30 05:13:32;;;;;;;15.35;9.77;;;16.00;97.60;;;;;;5029915;28;20029;-64
2023/06/30 05:15:58;;;;;;;19.40;9.20;;;16.00;97.80;;;;;;5028263;28;20081;-64
2023/06/30 05:18:23;;;;;;;15.02;9.40;;;16.00;97.80;;;;;;5028267;28;20031;-64
2023/06/30 05:20:49;;;;;;;15.23;9.88;;;16.00;98.10;;;;;;5019500;28;20036;-65
2023/06/30 05:23:14;;;;;;;17.20;9.77;;;15.90;97.90;;;;;;5008735;28;20390;-64
2023/06/30 05:25:40;;;;;;;22.20;10.25;;;15.90;97.90;;;;;;5013398;28;20238;-65
2023/06/30 05:28:05;;;;;;;17.48;9.98;;;15.80;98.10;;;;;;5026074;28;20146;-67
2023/06/30 05:30:31;;;;;;;16.38;10.30;;;15.80;98.30;;;;;;5021736;28;20403;-65
2023/06/30 05:32:56;;;;;;;16.70;10.35;;;15.90;98.30;;;;;;5030821;28;20126;-65
2023/06/30 05:35:22;;;;;;;16.55;10.52;;;15.90;98.30;;;;;;5026385;28;20083;-66
2023/06/30 05:37:47;;;;;;;18.17;10.38;;;15.80;98.20;;;;;;5027407;28;20042;-65
2023/06/30 05:40:13;;;;;;;17.17;10.35;;;15.80;98.40;;;;;;5021480;28;20116;-67
2023/06/30 05:42:38;;;;;;;19.95;10.50;;;15.80;98.50;;;;;;5025193;28;20144;-65
2023/06/30 05:45:04;;;;;;;16.38;10.13;;;15.70;98.40;;;;;;5029654;28;20112;-66
2023/06/30 05:47:30;;;;;;;13.45;9.57;;;15.70;98.60;;;;;;5019769;28;20037;-64
2023/06/30 05:49:55;;;;;;;18.63;9.90;;;15.70;98.50;;;;;;5026158;28;20715;-66
2023/06/30 05:52:24;;;;;;;16.95;9.95;;;15.80;98.70;;;;;;5026897;28;20044;-65
2023/06/30 05:54:50;;;;;;;15.63;10.10;;;15.80;98.70;;;;;;5030364;28;20033;-65
2023/06/30 05:57:15;;;;;;;18.40;9.63;;;15.80;98.60;;;;;;5026184;28;20048;-65
2023/06/30 05:59:41;;;;;;;16.27;9.95;;;15.80;98.70;;;;;;5028311;28;20414;-64
2023/06/30 06:02:06;;;;;;;15.25;9.80;;;15.80;98.70;;;;;;5028007;28;20461;-65
2023/06/30 06:04:32;;;;;;;15.60;8.85;;;15.90;98.60;;;;;;5029475;28;20034;-65
2023/06/30 06:07:01;;;;;;;14.75;9.20;;;15.80;98.70;;;;;;5025809;28;20033;-65
2023/06/30 06:09:27;;;;;;;14.55;9.25;;;15.90;98.70;;;;;;5028816;28;20030;-64
2023/06/30 06:11:52;;;;;;;13.77;9.32;;;16.00;98.70;;;;;;5024605;28;20119;-64
2023/06/30 06:14:19;;;;;;;15.02;9.13;;;15.90;98.50;;;;;;5028036;28;20029;-64
2023/06/30 06:16:45;;;;;;;19.50;9.15;;;16.00;98.70;;;;;;5037819;28;20181;-64
2023/06/30 06:19:11;;;;;;;17.08;9.63;;;16.10;98.60;;;;;;5035519;28;20037;-65
2023/06/30 06:21:37;;;;;;;16.88;8.95;;;16.10;98.50;;;;;;5023563;28;20048;-64
2023/06/30 06:24:02;;;;;;;16.98;8.82;;;16.10;98.30;;;;;;5023086;28;20370;-64
2023/06/30 06:26:28;;;;;;;18.55;8.45;;;16.10;98.30;;;;;;5027307;28;20037;-65
2023/06/30 06:28:53;;;;;;;14.23;8.05;;;16.10;98.20;;;;;;5034721;28;20408;-64
2023/06/30 06:31:19;;;;;;;18.33;9.77;;;16.20;98.20;;;;;;5029502;28;20132;-64
2023/06/30 06:33:44;;;;;;;13.75;7.88;;;16.20;98.20;;;;;;5027198;28;20041;-64
2023/06/30 06:36:10;;;;;;;13.60;7.50;;;16.20;98.10;;;;;;5027128;28;20099;-65
2023/06/30 06:38:37;;;;;;;9.45;7.43;;;16.20;97.80;;;;;;5026806;28;20013;-65
2023/06/30 06:41:02;;;;;;;12.23;7.65;;;16.30;97.90;;;;;;5022765;28;20272;-65
2023/06/30 06:43:28;;;;;;;15.00;7.65;;;16.30;97.80;;;;;;5030823;28;20401;-64
2023/06/30 06:45:53;;;;;;;13.88;6.90;;;16.20;97.40;;;;;;5026830;28;20021;-66
2023/06/30 06:48:27;;;;;;;15.88;7.35;;;16.30;97.70;;;;;;5027454;28;20041;-64
2023/06/30 06:50:57;;;;;;;12.80;6.40;;;16.40;97.60;;;;;;5010625;28;20091;-63
2023/06/30 06:53:32;;;;;;;12.82;5.97;;;16.50;97.60;;;;;;5011446;28;20063;-65
2023/06/30 06:55:58;;;;;;;15.20;6.13;;;16.60;97.40;;;;;;5008000;28;20061;-64
2023/06/30 06:58:25;;;;;;;13.68;5.97;;;16.60;97.10;;;;;;5031817;28;20447;-64
2023/06/30 07:00:52;;;;;;;7.72;5.00;;;16.70;97.00;;;;;;5028335;28;20022;-64
2023/06/30 07:03:19;;;;;;;10.85;4.60;;;16.90;97.10;;;;;;5026414;28;20068;-64
2023/06/30 07:05:44;;;;;;;6.15;3.97;;;16.90;97.00;;;;;;5022852;28;20121;-64
2023/06/30 07:08:11;;;;;;;8.77;4.20;;;16.80;95.50;;;;;;5026727;28;20547;-64
2023/06/30 07:10:37;;;;;;;9.68;3.58;;;17.00;95.50;;;;;;5030307;28;20070;-64
2023/06/30 07:13:03;;;;;;;9.93;3.40;;;17.10;95.30;;;;;;5026200;28;20417;-64
2023/06/30 07:15:29;;;;;;;6.75;2.67;;;17.20;95.30;;;;;;5018667;28;20091;-65
2023/06/30 07:17:56;;;;;;;4.65;2.40;;;17.30;94.50;;;;;;5026473;28;20491;-64
2023/06/30 07:20:22;;;;;;;5.18;2.03;;;17.00;93.50;;;;;;5023225;28;20369;-64
2023/06/30 07:22:47;;;;;;;4.93;2.22;;;17.20;94.10;;;;;;5020931;28;20488;-64
2023/06/30 07:25:13;;;;;;;9.02;2.78;;;17.20;94.40;;;;;;5019159;28;20021;-64
2023/06/30 07:27:39;;;;;;;7.03;2.40;;;17.50;94.80;;;;;;5019211;28;20370;-65
2023/06/30 07:30:05;;;;;;;6.18;2.20;;;17.50;93.60;;;;;;5025804;28;20040;-64
2023/06/30 07:32:33;;;;;;;4.38;1.58;;;17.40;92.90;;;;;;5016302;28;20032;-65
2023/06/30 07:35:00;;;;;;;8.00;2.13;;;17.30;92.20;;;;;;5020617;28;20819;-64
2023/06/30 07:37:25;;;;;;;6.07;1.83;;;17.50;92.70;;;;;;5023252;28;20450;-66
2023/06/30 07:39:51;;;;;;;6.63;2.00;;;17.50;91.80;;;;;;5020922;28;20033;-64
2023/06/30 07:42:16;;;;;;;5.95;1.60;;;17.60;93.20;;;;;;5027303;28;20454;-64
2023/06/30 07:44:42;;;;;;;8.23;1.90;;;17.80;93.20;;;;;;5032292;28;20033;-66
2023/06/30 07:47:07;;;;;;;6.05;1.65;;;17.80;92.70;;;;;;5025472;28;20071;-64
2023/06/30 07:49:33;;;;;;;5.60;1.92;;;18.20;93.20;;;;;;5025298;28;20395;-65
2023/06/30 07:51:58;;;;;;;6.35;1.80;;;18.50;92.10;;;;;;5021226;28;20053;-64
2023/06/30 07:54:24;;;;;;;5.97;1.70;;;18.70;92.30;;;;;;5024261;28;20522;-64
2023/06/30 07:56:49;;;;;;;3.33;1.48;;;19.00;90.00;;;;;;5025283;28;20030;-67
2023/06/30 07:59:15;;;;;;;6.05;1.50;;;19.00;87.50;;;;;;5030429;28;20114;-64
2023/06/30 08:01:40;;;;;;;4.75;1.20;;;18.90;87.00;;;;;;5033438;28;20306;-65
2023/06/30 08:04:06;;;;;;;2.65;1.15;;;18.90;86.90;;;;;;5032042;28;20470;-65
2023/06/30 08:06:31;;;;;;;7.55;1.70;;;19.00;86.40;;;;;;5018034;28;20026;-65
2023/06/30 08:08:57;;;;;;;4.00;1.15;;;18.90;88.30;;;;;;5023310;28;20548;-64
2023/06/30 08:11:22;;;;;;;4.65;1.42;;;18.90;86.60;;;;;;5025797;28;20476;-65
2023/06/30 08:13:47;;;;;;;5.78;1.85;;;18.90;87.60;;;;;;5025166;28;20026;-65
2023/06/30 08:16:14;;;;;;;3.45;1.42;;;18.90;88.40;;;;;;5026479;28;20109;-64
2023/06/30 08:18:40;;;;;;;6.20;1.17;;;18.80;88.90;;;;;;5027160;28;20080;-64
2023/06/30 08:21:05;;;;;;;4.90;1.45;;;18.60;88.40;;;;;;5023234;28;20037;-65
2023/06/30 08:23:31;;;;;;;4.57;1.10;;;18.30;86.90;;;;;;5028226;28;20033;-64
2023/06/30 08:25:56;;;;;;;2.30;1.05;;;18.30;88.30;;;;;;5023039;28;20038;-65
2023/06/30 08:28:22;;;;;;;5.90;1.63;;;18.20;89.70;;;;;;5019742;28;20033;-67
2023/06/30 08:30:48;;;;;;;7.45;1.48;;;18.50;90.70;;;;;;5017911;28;20437;-66
2023/06/30 08:33:13;;;;;;;6.05;1.40;;;18.80;86.50;;;;;;5026641;28;20490;-65
2023/06/30 08:35:39;;;;;;;5.88;1.42;;;19.30;83.60;;;;;;5030232;28;20152;-66
2023/06/30 08:38:05;;;;;;;6.35;1.52;;;19.90;83.20;;;;;;5028007;28;20108;-65
2023/06/30 08:40:31;;;;;;;4.72;1.30;;;19.60;81.80;;;;;;5020952;28;20350;-64
2023/06/30 08:43:05;;;;;;;4.05;1.08;;;19.60;84.50;;;;;;5031951;28;20029;-65
2023/06/30 08:45:31;;;;;;;5.63;1.45;;;19.40;85.10;;;;;;5016988;28;20028;-64
2023/06/30 08:48:02;;;;;;;4.13;1.33;;;19.20;86.10;;;;;;5026236;28;20430;-64
2023/06/30 08:50:28;;;;;;;3.10;1.02;;;18.90;85.90;;;;;;5031346;28;20052;-65
2023/06/30 08:52:54;;;;;;;5.03;1.30;;;18.70;85.10;;;;;;5005872;28;20045;-65
2023/06/30 08:55:20;;;;;;;5.40;1.13;;;18.60;83.50;;;;;;5024371;28;20029;-66
2023/06/30 08:57:46;;;;;;;8.70;1.27;;;19.20;86.10;;;;;;5029030;28;20349;-65
2023/06/30 09:00:12;;;;;;;4.95;1.15;;;19.70;80.00;;;;;;5033831;28;20070;-65
2023/06/30 09:02:38;;;;;;;2.50;0.70;;;20.00;77.10;;;;;;5030653;28;20094;-65
2023/06/30 09:05:07;;;;;;;2.97;0.90;;;20.10;74.20;;;;;;5026251;28;20399;-64
2023/06/30 09:07:44;;;;;;;2.40;0.82;;;20.30;72.10;;;;;;5028339;28;20030;-64
2023/06/30 09:10:10;;;;;;;4.03;0.88;;;20.60;70.70;;;;;;5030122;28;20048;-65
2023/06/30 09:12:38;;;;;;;3.85;1.08;;;20.50;72.50;;;;;;5016499;28;20069;-64
2023/06/30 09:15:06;;;;;;;3.08;0.90;;;20.50;70.60;;;;;;5021186;28;20095;-64
2023/06/30 09:17:32;;;;;;;4.25;0.95;;;20.70;69.40;;;;;;5024921;28;20033;-65
2023/06/30 09:19:58;;;;;;;3.72;0.75;;;21.00;69.90;;;;;;5021744;28;20038;-68
2023/06/30 09:22:25;;;;;;;7.57;1.10;;;21.60;69.40;;;;;;5027702;28;20056;-65
2023/06/30 09:24:51;;;;;;;2.88;0.85;;;21.20;69.80;;;;;;5023893;28;20453;-65
2023/06/30 09:27:17;;;;;;;3.63;0.80;;;21.80;73.70;;;;;;5023544;28;20123;-65
2023/06/30 09:29:53;;;;;;;5.72;0.90;;;22.00;67.70;;;;;;5021436;28;20124;-66
2023/06/30 09:32:24;;;;;;;4.43;0.90;;;21.60;68.10;;;;;;5014526;28;20037;-67
2023/06/30 09:34:53;;;;;;;3.67;0.98;;;21.30;65.40;;;;;;5020844;28;20241;-67
2023/06/30 09:37:20;;;;;;;6.47;0.98;;;21.00;66.60;;;;;;5026020;28;20029;-66
2023/06/30 09:39:52;;;;;;;2.45;0.90;;;21.50;69.70;;;;;;5032407;28;20017;-66
2023/06/30 09:42:20;;;;;;;5.15;1.05;;;21.50;68.50;;;;;;5020355;28;20378;-66
2023/06/30 09:44:46;;;;;;;4.63;1.10;;;21.20;67.80;;;;;;5023254;28;20085;-69
2023/06/30 09:47:12;;;;;;;4.57;1.10;;;20.90;68.20;;;;;;5016363;28;20074;-67
2023/06/30 09:49:39;;;;;;;4.82;0.93;;;20.60;68.30;;;;;;5024337;28;20438;-68
2023/06/30 09:52:05;;;;;;;2.85;0.75;;;20.10;69.20;;;;;;5028215;28;20457;-66
2023/06/30 09:54:33;;;;;;;2.50;0.75;;;20.00;70.50;;;;;;5025326;28;20215;-66
2023/06/30 09:57:05;;;;;;;1.75;0.50;;;20.10;69.70;;;;;;5023537;28;20033;-66
2023/06/30 09:59:30;;;;;;;4.53;1.02;;;20.20;69.20;;;;;;5041316;28;20094;-65
2023/06/30 10:01:56;;;;;;;3.60;0.73;;;20.50;69.40;;;;;;5023124;28;20500;-67
2023/06/30 10:04:23;;;;;;;2.05;0.93;;;20.60;68.20;;;;;;5024855;28;20436;-66
2023/06/30 10:06:51;;;;;;;5.57;1.00;;;20.90;69.20;;;;;;5026703;28;20085;-66
2023/06/30 10:09:20;;;;;;;4.15;1.15;;;21.20;67.90;;;;;;5026172;28;20037;-67
2023/06/30 10:11:52;;;;;;;3.22;0.68;;;21.00;66.50;;;;;;5029452;28;20330;-67
2023/06/30 10:14:30;;;;;;;3.08;0.95;;;20.90;67.40;;;;;;5024841;28;20025;-68
2023/06/30 10:16:57;;;;;;;3.45;1.08;;;21.00;68.30;;;;;;5020445;28;20139;-67
2023/06/30 10:19:24;;;;;;;4.70;0.80;;;21.50;65.10;;;;;;5015887;28;20026;-68
2023/06/30 10:21:49;;;;;;;3.05;0.90;;;21.20;62.90;;;;;;5021048;28;20025;-66
2023/06/30 10:24:18;;;;;;;3.58;0.80;;;21.90;62.40;;;;;;5028724;28;20402;-67
2023/06/30 10:26:46;;;;;;;3.63;0.73;;;22.20;58.20;;;;;;5026417;28;20025;-67
2023/06/30 10:29:12;;;;;;;4.53;0.73;;;22.20;58.30;;;;;;5030364;28;20021;-67
2023/06/30 10:31:37;;;;;;;3.63;0.85;;;22.50;58.60;;;;;;5023017;28;20048;-66
2023/06/30 10:34:03;;;;;;;2.75;0.80;;;22.60;60.00;;;;;;5026777;28;20022;-67
2023/06/30 10:36:29;;;;;;;4.80;1.00;;;23.30;59.40;;;;;;5018935;28;20029;-68
2023/06/30 10:38:55;;;;;;;4.40;1.05;;;24.20;56.40;;;;;;5020178;28;20365;-65
2023/06/30 10:41:22;;;;;;;3.75;0.80;;;24.20;56.30;;;;;;5026099;28;20094;-65
2023/06/30 10:44:10;;;;;;;3.38;0.73;;;23.20;58.30;;;;;;5029630;28;20025;-65
2023/06/30 10:46:49;;;;;;;3.55;1.00;;;22.60;60.20;;;;;;5018559;28;20025;-65
2023/06/30 10:49:19;;;;;;;3.80;0.97;;;22.10;62.00;;;;;;5020600;28;20029;-64
2023/06/30 10:51:47;;;;;;;5.00;0.85;;;21.80;61.10;;;;;;5026226;28;20513;-65
2023/06/30 10:54:37;;;;;;;2.40;0.70;;;21.20;61.70;;;;;;5023199;28;20156;-65
2023/06/30 10:57:11;;;;;;;2.25;0.70;;;21.50;60.70;;;;;;5001092;28;20035;-65
2023/06/30 10:59:39;;;;;;;2.85;0.82;;;22.00;60.50;;;;;;5022416;28;20029;-65
2023/06/30 11:02:17;;;;;;;4.78;0.77;;;22.40;57.40;;;;;;5023144;28;20365;-65
2023/06/30 11:04:45;;;;;;;2.90;0.73;;;23.20;56.90;;;;;;5021543;28;20430;-67
2023/06/30 11:07:16;;;;;;;2.70;0.80;;;23.40;55.50;;;;;;5011360;28;20065;-66
2023/06/30 11:09:47;;;;;;;4.35;0.88;;;23.90;53.60;;;;;;5024077;28;20029;-65
2023/06/30 11:12:23;;;;;;;1.88;0.70;;;23.50;53.00;;;;;;5029425;28;20148;-66
2023/06/30 11:15:03;;;;;;;5.32;0.80;;;23.50;53.80;;;;;;5016285;28;20038;-66
2023/06/30 11:17:52;;;;;;;3.10;0.80;;;23.60;55.90;;;;;;5021157;28;20120;-65
2023/06/30 11:20:18;;;;;;;2.85;0.50;;;23.20;53.10;;;;;;5008671;28;20073;-66
2023/06/30 11:23:04;;;;;;;2.88;0.80;;;23.00;54.90;;;;;;5017529;28;20101;-65
2023/06/30 11:25:31;;;;;;;7.05;0.93;;;23.00;56.30;;;;;;5029201;28;20066;-64
2023/06/30 11:27:59;;;;;;;4.18;1.00;;;22.90;55.30;;;;;;5023482;28;20065;-65
2023/06/30 11:30:25;;;;;;;2.65;0.85;;;22.80;56.00;;;;;;5025293;28;20047;-65
2023/06/30 11:33:00;;;;;;;2.58;1.10;;;22.80;57.10;;;;;;5024455;28;20017;-64
2023/06/30 11:35:28;;;;;;;2.67;0.73;;;23.30;55.10;;;;;;5022186;28;20137;-66
2023/06/30 11:37:54;;;;;;;2.88;0.70;;;23.60;54.90;;;;;;5025150;28;20017;-66
2023/06/30 11:40:21;;;;;;;2.70;0.88;;;24.00;55.70;;;;;;5026818;28;20029;-65
2023/06/30 11:42:47;;;;;;;1.85;0.80;;;24.20;54.80;;;;;;5021660;28;20475;-65
2023/06/30 11:45:19;;;;;;;4.05;0.70;;;24.00;54.20;;;;;;5007954;28;20025;-67
2023/06/30 11:47:51;;;;;;;2.50;0.93;;;24.40;54.40;;;;;;5024493;28;20029;-65
2023/06/30 11:50:17;;;;;;;4.93;1.10;;;24.80;52.60;;;;;;5023648;28;20061;-66
2023/06/30 11:52:44;;;;;;;1.13;0.50;;;24.30;53.60;;;;;;5024066;28;20029;-66
2023/06/30 11:55:11;;;;;;;1.08;0.43;;;24.90;51.10;;;;;;5029252;28;20030;-66
2023/06/30 11:57:39;;;;;;;2.30;0.85;;;25.40;49.00;;;;;;5023203;28;20317;-66
2023/06/30 12:00:09;;;;;;;2.88;0.85;;;25.20;49.30;;;;;;5025819;28;20430;-66
2023/06/30 12:02:35;;;;;;;2.55;0.80;;;25.60;50.00;;;;;;5023413;28;20114;-65
2023/06/30 12:05:01;;;;;;;2.97;0.85;;;25.80;50.30;;;;;;5025565;28;20139;-65
2023/06/30 12:07:27;;;;;;;3.75;0.85;;;26.50;51.10;;;;;;5026321;28;20448;-66
2023/06/30 12:10:02;;;;;;;4.38;0.73;;;26.50;48.30;;;;;;5034301;28;20438;-66
2023/06/30 12:12:28;;;;;;;2.58;0.85;;;27.50;46.60;;;;;;5019876;28;20132;-66
2023/06/30 12:14:56;;;;;;;1.65;0.65;;;27.00;46.30;;;;;;5024105;28;20445;-66
2023/06/30 12:17:25;;;;;;;3.47;0.88;;;27.80;44.60;;;;;;5027969;28;20229;-66
2023/06/30 12:19:51;;;;;;;2.50;0.60;;;26.80;46.10;;;;;;5022270;28;20022;-67
2023/06/30 12:22:30;;;;;;;3.80;0.70;;;25.80;48.20;;;;;;5026095;28;20022;-66
2023/06/30 12:24:59;;;;;;;4.82;1.02;;;26.30;46.10;;;;;;5021389;28;20127;-66
2023/06/30 12:27:29;;;;;;;3.30;0.93;;;26.70;46.20;;;;;;5024023;28;20022;-66
2023/06/30 12:29:55;;;;;;;3.33;0.85;;;26.40;47.10;;;;;;5026373;28;20033;-65
2023/06/30 12:32:22;;;;;;;1.63;0.80;;;24.90;48.00;;;;;;5024462;28;20029;-66
2023/06/30 12:34:48;;;;;;;3.20;0.57;;;24.80;49.30;;;;;;5026683;28;20075;-65
2023/06/30 12:37:18;;;;;;;2.83;0.77;;;24.60;50.40;;;;;;5026940;28;20076;-65
2023/06/30 12:39:44;;;;;;;2.50;0.80;;;24.20;51.60;;;;;;5026082;28;20059;-66
2023/06/30 12:42:11;;;;;;;4.20;0.70;;;24.00;52.60;;;;;;5025349;28;20186;-65